createdAt,value
2023-03-16T00:02:04.642Z,17.00
2023-03-16T00:04:31.393Z,17.00
2023-03-16T00:06:58.553Z,17.00
2023-03-16T00:09:31.313Z,17.10
2023-03-16T00:11:58.915Z,17.00
2023-03-16T00:14:25.834Z,17.00
2023-03-16T00:16:52.411Z,17.00
2023-03-16T00:19:19.007Z,17.00
2023-03-16T00:21:45.587Z,17.00
2023-03-16T00:24:12.890Z,17.00
2023-03-16T00:26:39.469Z,17.00
2023-03-16T00:29:06.026Z,17.50
2023-03-16T00:31:33.890Z,17.00
2023-03-16T00:34:02.677Z,17.00
2023-03-16T00:36:30.262Z,17.00
2023-03-16T00:38:56.814Z,17.00
2023-03-16T00:41:23.330Z,17.00
2023-03-16T00:43:51.663Z,17.00
2023-03-16T00:46:18.278Z,17.00
2023-03-16T00:48:46.084Z,17.00
2023-03-16T00:51:14.767Z,17.00
2023-03-16T00:53:43.141Z,17.00
2023-03-16T00:56:10.362Z,17.00
2023-03-16T00:58:38.143Z,17.00
2023-03-16T01:01:06.361Z,17.00
2023-03-16T01:03:33.489Z,17.00
2023-03-16T01:06:07.359Z,17.00
2023-03-16T01:08:34.050Z,17.00
2023-03-16T01:11:04.649Z,17.00
2023-03-16T01:13:32.440Z,17.00
2023-03-16T01:15:59.586Z,17.00
2023-03-16T01:18:27.201Z,17.00
2023-03-16T01:20:53.814Z,16.90
2023-03-16T01:23:20.935Z,17.00
2023-03-16T01:25:53.034Z,17.00
2023-03-16T01:28:24.594Z,17.00
2023-03-16T01:30:55.510Z,17.10
2023-03-16T01:33:22.294Z,17.20
2023-03-16T01:35:57.998Z,17.10
2023-03-16T01:38:25.028Z,17.20
2023-03-16T01:40:52.255Z,17.20
2023-03-16T01:43:19.767Z,17.10
2023-03-16T01:46:04.737Z,17.10
2023-03-16T01:48:37.316Z,17.10
2023-03-16T01:51:09.276Z,17.10
2023-03-16T01:53:36.497Z,17.10
2023-03-16T01:56:03.839Z,17.10
2023-03-16T01:58:31.442Z,17.00
2023-03-16T02:00:58.643Z,17.00
2023-03-16T02:03:25.659Z,17.00
2023-03-16T02:06:00.972Z,17.00
2023-03-16T02:08:27.730Z,17.00
2023-03-16T02:10:56.146Z,17.00
2023-03-16T02:13:24.142Z,17.00
2023-03-16T02:15:51.991Z,17.00
2023-03-16T02:18:19.128Z,17.00
2023-03-16T02:20:54.974Z,17.00
2023-03-16T02:23:23.157Z,17.00
2023-03-16T02:25:52.714Z,17.00
2023-03-16T02:28:30.891Z,17.00
2023-03-16T02:30:57.864Z,17.00
2023-03-16T02:33:25.119Z,17.00
2023-03-16T02:35:51.688Z,17.00
2023-03-16T02:38:18.275Z,17.00
2023-03-16T02:40:45.906Z,17.00
2023-03-16T02:43:20.582Z,17.00
2023-03-16T02:45:50.010Z,17.00
2023-03-16T02:48:25.087Z,17.00
2023-03-16T02:50:52.866Z,17.00
2023-03-16T02:53:19.660Z,17.00
2023-03-16T02:55:46.475Z,17.00
2023-03-16T02:58:14.131Z,17.00
2023-03-16T03:00:40.971Z,16.90
2023-03-16T03:03:09.405Z,17.00
2023-03-16T03:05:36.769Z,17.00
2023-03-16T03:08:03.742Z,17.00
2023-03-16T03:10:31.083Z,17.00
2023-03-16T03:12:57.730Z,17.00
2023-03-16T03:15:24.305Z,16.90
2023-03-16T03:17:51.336Z,16.90
2023-03-16T03:20:18.338Z,17.00
2023-03-16T03:22:46.389Z,17.30
2023-03-16T03:25:14.460Z,16.90
2023-03-16T03:27:44.635Z,16.90
2023-03-16T03:30:15.740Z,16.90
2023-03-16T03:32:44.122Z,17.00
2023-03-16T03:35:14.824Z,16.90
2023-03-16T03:37:42.433Z,16.90
2023-03-16T03:40:10.661Z,16.90
2023-03-16T03:42:37.576Z,16.90
2023-03-16T03:45:04.674Z,16.90
2023-03-16T03:47:31.626Z,16.90
2023-03-16T03:49:58.220Z,16.90
2023-03-16T03:52:24.978Z,16.90
2023-03-16T03:54:51.646Z,16.90
2023-03-16T03:57:19.869Z,16.90
2023-03-16T03:59:48.106Z,16.90
2023-03-16T04:02:14.951Z,16.90
2023-03-16T04:04:42.126Z,16.90
2023-03-16T04:07:08.783Z,16.90
2023-03-16T04:09:36.128Z,16.90
2023-03-16T04:12:04.769Z,16.90
2023-03-16T04:14:31.746Z,16.90
2023-03-16T04:16:58.376Z,16.90
2023-03-16T04:19:25.261Z,16.90
2023-03-16T04:21:52.086Z,17.00
2023-03-16T04:24:18.791Z,16.90
2023-03-16T04:26:45.683Z,16.90
2023-03-16T04:29:14.187Z,16.90
2023-03-16T04:31:42.398Z,17.00
2023-03-16T04:34:09.475Z,16.90
2023-03-16T04:36:36.030Z,17.00
2023-03-16T04:39:02.936Z,17.10
2023-03-16T04:41:29.694Z,17.60
2023-03-16T04:43:57.691Z,17.10
2023-03-16T04:46:26.406Z,17.10
2023-03-16T04:48:53.788Z,17.10
2023-03-16T04:51:21.425Z,17.10
2023-03-16T04:53:48.039Z,17.10
2023-03-16T04:56:19.482Z,17.10
2023-03-16T04:58:47.016Z,17.10
2023-03-16T05:01:14.194Z,17.00
2023-03-16T05:03:40.907Z,17.40
2023-03-16T05:06:07.548Z,17.00
2023-03-16T05:08:34.072Z,17.00
2023-03-16T05:11:00.650Z,17.00
2023-03-16T05:13:27.200Z,17.00
2023-03-16T05:15:53.934Z,17.60
2023-03-16T05:18:21.589Z,17.10
2023-03-16T05:20:55.911Z,17.00
2023-03-16T05:23:22.819Z,17.00
2023-03-16T05:25:49.661Z,17.00
2023-03-16T05:28:16.760Z,17.00
2023-03-16T05:30:44.992Z,16.90
2023-03-16T05:33:11.991Z,16.90
2023-03-16T05:35:38.801Z,16.90
2023-03-16T05:38:05.594Z,17.00
2023-03-16T05:40:33.062Z,16.90
2023-03-16T05:43:00.541Z,16.90
2023-03-16T05:45:27.227Z,16.90
2023-03-16T05:47:54.003Z,16.90
2023-03-16T05:50:20.678Z,17.00
2023-03-16T05:52:47.305Z,16.90
2023-03-16T05:55:14.764Z,16.90
2023-03-16T05:57:41.741Z,16.90
2023-03-16T06:00:16.331Z,16.90
2023-03-16T06:02:43.828Z,16.90
2023-03-16T06:05:11.145Z,16.90
2023-03-16T06:07:37.760Z,16.90
2023-03-16T06:10:05.455Z,16.90
2023-03-16T06:12:32.293Z,16.90
2023-03-16T06:14:59.009Z,16.90
2023-03-16T06:17:25.612Z,16.90
2023-03-16T06:19:52.210Z,16.90
2023-03-16T06:22:19.018Z,16.90
2023-03-16T06:24:45.633Z,17.00
2023-03-16T06:27:12.370Z,17.00
2023-03-16T06:29:38.944Z,17.00
2023-03-16T06:32:05.647Z,17.00
2023-03-16T06:34:32.210Z,16.90
2023-03-16T06:36:58.785Z,16.90
2023-03-16T06:39:25.620Z,17.00
2023-03-16T06:41:52.223Z,17.10
2023-03-16T06:44:18.869Z,17.10
2023-03-16T06:46:45.528Z,17.10
2023-03-16T06:49:12.151Z,17.20
2023-03-16T06:51:38.808Z,17.20
2023-03-16T06:54:05.518Z,17.10
2023-03-16T06:56:32.105Z,17.10
2023-03-16T06:58:58.720Z,17.10
2023-03-16T07:01:25.555Z,17.10
2023-03-16T07:03:52.197Z,17.10
2023-03-16T07:06:19.006Z,16.90
2023-03-16T07:08:46.412Z,17.00
2023-03-16T07:11:14.792Z,17.00
2023-03-16T07:13:41.548Z,17.00
2023-03-16T07:16:08.426Z,17.00
2023-03-16T07:18:37.899Z,17.00
2023-03-16T07:21:04.607Z,16.90
2023-03-16T07:23:32.252Z,17.00
2023-03-16T07:25:58.843Z,16.90
2023-03-16T07:28:25.503Z,17.20
2023-03-16T07:31:02.970Z,16.90
2023-03-16T07:33:30.438Z,16.90
2023-03-16T07:35:57.030Z,16.90
2023-03-16T07:38:23.902Z,16.90
2023-03-16T07:40:52.142Z,16.90
2023-03-16T07:43:19.325Z,16.80
2023-03-16T07:45:49.994Z,16.80
2023-03-16T07:48:17.096Z,16.90
2023-03-16T07:50:44.240Z,16.80
2023-03-16T07:53:10.805Z,16.90
2023-03-16T07:55:39.000Z,16.80
2023-03-16T07:58:06.196Z,16.80
2023-03-16T08:00:33.495Z,16.80
2023-03-16T08:03:00.630Z,16.80
2023-03-16T08:05:27.978Z,16.70
2023-03-16T08:07:56.110Z,16.80
2023-03-16T08:10:23.081Z,16.80
2023-03-16T08:12:49.760Z,16.90
2023-03-16T08:15:16.427Z,16.90
2023-03-16T08:17:43.098Z,16.90
2023-03-16T08:20:12.384Z,17.00
2023-03-16T08:22:38.992Z,17.00
2023-03-16T08:25:10.349Z,16.30
2023-03-16T08:27:41.814Z,17.10
2023-03-16T08:30:11.646Z,17.20
2023-03-16T08:32:41.957Z,17.30
2023-03-16T08:35:09.803Z,17.40
2023-03-16T08:37:36.533Z,17.40
2023-03-16T08:40:05.143Z,17.50
2023-03-16T08:42:32.503Z,17.40
2023-03-16T08:45:00.864Z,17.40
2023-03-16T08:47:27.552Z,17.30
2023-03-16T08:49:54.156Z,17.30
2023-03-16T08:52:22.715Z,17.30
2023-03-16T08:55:02.411Z,17.40
2023-03-16T08:57:30.654Z,17.30
2023-03-16T08:59:57.283Z,17.30
2023-03-16T09:02:25.023Z,17.20
2023-03-16T09:04:52.706Z,17.40
2023-03-16T09:07:19.405Z,17.20
2023-03-16T09:09:46.389Z,17.20
2023-03-16T09:12:13.583Z,17.20
2023-03-16T09:14:40.281Z,17.70
2023-03-16T09:17:11.575Z,17.10
2023-03-16T09:19:57.677Z,17.10
2023-03-16T09:22:25.634Z,17.10
2023-03-16T09:24:52.342Z,17.10
2023-03-16T09:27:19.098Z,17.10
2023-03-16T09:29:46.640Z,17.10
2023-03-16T09:32:14.176Z,17.00
2023-03-16T09:34:41.376Z,17.00
2023-03-16T09:37:08.037Z,17.10
2023-03-16T09:39:34.725Z,17.10
2023-03-16T09:42:01.275Z,17.20
2023-03-16T09:44:37.199Z,17.00
2023-03-16T09:47:04.896Z,17.10
2023-03-16T09:49:42.384Z,17.10
2023-03-16T09:52:18.430Z,17.20
2023-03-16T09:54:54.127Z,17.20
2023-03-16T09:57:28.532Z,17.30
2023-03-16T09:59:58.985Z,17.40
2023-03-16T10:02:44.569Z,17.40
2023-03-16T10:05:16.060Z,17.30
2023-03-16T10:07:48.294Z,17.30
2023-03-16T10:10:19.498Z,17.30
2023-03-16T10:12:50.311Z,17.30
2023-03-16T10:15:19.394Z,17.30
2023-03-16T10:18:06.523Z,17.30
2023-03-16T10:20:33.948Z,17.20
2023-03-16T10:23:02.181Z,17.20
2023-03-16T10:25:35.393Z,17.20
2023-03-16T10:28:02.334Z,17.20
2023-03-16T10:30:32.129Z,17.20
2023-03-16T10:33:05.316Z,17.10
2023-03-16T10:35:43.259Z,17.10
2023-03-16T10:38:25.358Z,17.10
2023-03-16T10:40:52.530Z,17.00
2023-03-16T10:43:19.248Z,17.10
2023-03-16T10:45:46.725Z,17.00
2023-03-16T10:48:14.619Z,17.00
2023-03-16T10:50:42.983Z,17.30
2023-03-16T10:53:16.466Z,17.40
2023-03-16T10:55:44.856Z,17.10
2023-03-16T10:58:22.422Z,17.10
2023-03-16T11:00:49.008Z,17.10
2023-03-16T11:03:25.854Z,17.30
2023-03-16T11:06:00.627Z,17.20
2023-03-16T11:08:27.926Z,17.30
2023-03-16T11:10:58.771Z,17.40
2023-03-16T11:13:32.864Z,17.40
2023-03-16T11:16:03.030Z,17.40
2023-03-16T11:18:36.821Z,17.40
2023-03-16T11:21:08.234Z,17.40
2023-03-16T11:23:37.423Z,17.30
2023-03-16T11:26:05.824Z,17.30
2023-03-16T11:28:35.387Z,17.30
2023-03-16T11:31:02.779Z,17.20
2023-03-16T11:33:31.105Z,17.20
2023-03-16T11:36:00.472Z,17.10
2023-03-16T11:38:50.471Z,17.10
2023-03-16T11:41:26.692Z,17.10
2023-03-16T11:43:55.429Z,17.10
2023-03-16T11:46:23.944Z,17.10
2023-03-16T11:48:50.596Z,17.10
2023-03-16T11:51:28.637Z,17.10
2023-03-16T11:54:07.872Z,17.10
2023-03-16T11:56:36.116Z,17.10
2023-03-16T11:59:14.572Z,17.10
2023-03-16T12:02:01.257Z,17.10
2023-03-16T12:04:28.263Z,17.10
2023-03-16T12:07:01.387Z,17.00
2023-03-16T12:09:31.092Z,17.00
2023-03-16T12:12:04.715Z,17.00
2023-03-16T12:14:42.688Z,17.00
2023-03-16T12:17:19.477Z,17.00
2023-03-16T12:20:05.620Z,17.00
2023-03-16T12:22:38.920Z,17.00
2023-03-16T12:25:13.143Z,17.00
2023-03-16T12:27:41.148Z,17.00
2023-03-16T12:30:10.194Z,17.00
2023-03-16T12:32:47.083Z,17.00
2023-03-16T12:35:13.694Z,17.00
2023-03-16T12:37:45.007Z,17.00
2023-03-16T12:40:27.053Z,17.10
2023-03-16T12:42:59.487Z,17.10
2023-03-16T12:45:30.242Z,17.00
2023-03-16T12:48:04.682Z,17.00
2023-03-16T12:50:31.885Z,17.10
2023-03-16T12:52:58.530Z,17.10
2023-03-16T12:55:34.548Z,17.10
2023-03-16T12:58:02.749Z,17.20
2023-03-16T13:00:52.673Z,17.30
2023-03-16T13:03:21.230Z,17.30
2023-03-16T13:05:53.064Z,17.30
2023-03-16T13:08:21.133Z,17.40
2023-03-16T13:11:07.251Z,17.40
2023-03-16T13:13:34.198Z,17.30
2023-03-16T13:16:09.433Z,17.30
2023-03-16T13:18:38.594Z,17.20
2023-03-16T13:21:19.119Z,17.20
2023-03-16T13:23:54.460Z,17.20
2023-03-16T13:26:37.913Z,17.10
2023-03-16T13:29:23.793Z,17.10
2023-03-16T13:31:51.434Z,17.10
2023-03-16T13:34:23.288Z,17.00
2023-03-16T13:36:53.214Z,17.00
2023-03-16T13:39:20.908Z,17.00
2023-03-16T13:41:59.497Z,17.10
2023-03-16T13:44:26.856Z,17.00
2023-03-16T13:46:53.891Z,17.00
2023-03-16T13:49:20.435Z,17.00
2023-03-16T13:51:48.415Z,17.00
2023-03-16T13:54:29.691Z,17.00
2023-03-16T13:57:02.884Z,17.00
2023-03-16T13:59:29.794Z,17.00
2023-03-16T14:01:58.459Z,17.00
2023-03-16T14:04:28.666Z,17.30
2023-03-16T14:07:00.134Z,17.00
2023-03-16T14:09:28.641Z,17.00
2023-03-16T14:11:56.126Z,17.10
2023-03-16T14:14:30.824Z,17.10
2023-03-16T14:17:02.870Z,17.00
2023-03-16T14:19:36.007Z,17.00
2023-03-16T14:22:06.925Z,17.00
2023-03-16T14:24:35.216Z,17.10
2023-03-16T14:27:17.185Z,17.10
2023-03-16T14:29:44.352Z,17.10
2023-03-16T14:32:30.054Z,17.10
2023-03-16T14:35:10.670Z,17.20
2023-03-16T14:37:37.249Z,17.20
2023-03-16T14:40:06.031Z,17.30
2023-03-16T14:42:33.038Z,17.20
2023-03-16T14:45:00.851Z,17.20
2023-03-16T14:47:31.917Z,17.20
2023-03-16T14:50:03.131Z,17.10
2023-03-16T14:52:34.022Z,17.10
2023-03-16T14:55:03.545Z,17.00
2023-03-16T14:57:30.624Z,17.10
2023-03-16T14:59:57.633Z,17.10
2023-03-16T15:02:28.610Z,17.00
2023-03-16T15:04:56.647Z,17.00
2023-03-16T15:07:25.229Z,17.00
2023-03-16T15:09:53.772Z,17.00
2023-03-16T15:12:21.043Z,17.00
2023-03-16T15:15:06.375Z,17.00
2023-03-16T15:17:33.225Z,17.00
2023-03-16T15:19:59.798Z,17.00
2023-03-16T15:22:30.909Z,17.00
2023-03-16T15:24:58.802Z,16.90
2023-03-16T15:27:29.052Z,17.00
2023-03-16T15:29:56.605Z,17.00
2023-03-16T15:32:23.373Z,16.90
2023-03-16T15:34:49.918Z,16.90
2023-03-16T15:37:17.249Z,16.90
2023-03-16T15:39:46.114Z,16.90
2023-03-16T15:42:14.447Z,16.80
2023-03-16T15:44:41.079Z,16.80
2023-03-16T15:47:07.731Z,16.90
2023-03-16T15:49:45.055Z,16.80
2023-03-16T15:52:22.032Z,16.90
2023-03-16T15:54:48.605Z,16.90
2023-03-16T15:57:15.148Z,16.90
2023-03-16T15:59:41.821Z,16.90
2023-03-16T16:02:26.011Z,16.80
2023-03-16T16:04:52.847Z,16.80
2023-03-16T16:07:19.602Z,16.80
2023-03-16T16:09:46.597Z,16.80
2023-03-16T16:12:14.398Z,16.90
2023-03-16T16:14:41.740Z,16.90
2023-03-16T16:17:11.814Z,16.90
2023-03-16T16:19:38.374Z,16.90
2023-03-16T16:22:05.839Z,16.90
2023-03-16T16:24:33.405Z,16.90
2023-03-16T16:26:59.983Z,16.90
2023-03-16T16:29:30.133Z,16.90
2023-03-16T16:31:56.980Z,16.90
2023-03-16T16:34:24.904Z,16.90
2023-03-16T16:36:51.922Z,16.90
2023-03-16T16:39:18.551Z,16.90
2023-03-16T16:41:45.311Z,16.90
2023-03-16T16:44:16.941Z,16.90
2023-03-16T16:46:44.125Z,16.90
2023-03-16T16:49:15.202Z,16.90
2023-03-16T16:51:42.702Z,16.90
2023-03-16T16:54:17.161Z,16.90
2023-03-16T16:56:44.628Z,16.90
2023-03-16T16:59:14.356Z,17.20
2023-03-16T17:01:41.902Z,16.90
2023-03-16T17:04:16.138Z,16.80
2023-03-16T17:06:43.214Z,16.80
2023-03-16T17:09:09.965Z,16.80
2023-03-16T17:11:37.061Z,16.80
2023-03-16T17:14:04.967Z,16.80
2023-03-16T17:16:32.816Z,16.80
2023-03-16T17:18:59.570Z,16.70
2023-03-16T17:21:28.284Z,16.70
2023-03-16T17:23:54.877Z,16.70
2023-03-16T17:26:23.394Z,17.00
2023-03-16T17:29:01.842Z,16.70
2023-03-16T17:31:35.106Z,16.80
2023-03-16T17:34:02.490Z,16.80
2023-03-16T17:36:29.287Z,16.70
2023-03-16T17:38:56.165Z,16.60
2023-03-16T17:41:24.057Z,16.80
2023-03-16T17:43:51.895Z,16.90
2023-03-16T17:46:20.287Z,16.90
2023-03-16T17:48:47.720Z,16.90
2023-03-16T17:51:14.876Z,16.90
2023-03-16T17:53:41.928Z,17.10
2023-03-16T17:56:18.932Z,17.00
2023-03-16T17:58:46.990Z,17.00
2023-03-16T18:01:13.748Z,17.00
2023-03-16T18:03:43.996Z,16.90
2023-03-16T18:06:19.362Z,16.90
2023-03-16T18:08:48.435Z,16.90
2023-03-16T18:11:27.744Z,16.90
2023-03-16T18:13:54.356Z,16.90
2023-03-16T18:16:25.294Z,16.90
2023-03-16T18:18:56.640Z,16.90
2023-03-16T18:21:24.608Z,16.80
2023-03-16T18:23:51.774Z,16.90
2023-03-16T18:26:19.069Z,16.80
2023-03-16T18:28:46.068Z,16.80
2023-03-16T18:31:22.060Z,16.80
2023-03-16T18:33:50.098Z,16.80
2023-03-16T18:36:18.450Z,16.80
2023-03-16T18:38:46.337Z,16.80
2023-03-16T18:41:15.962Z,16.80
2023-03-16T18:43:42.730Z,16.80
2023-03-16T18:46:29.259Z,16.80
2023-03-16T18:49:00.856Z,16.90
2023-03-16T18:51:28.349Z,16.90
2023-03-16T18:53:55.334Z,16.90
2023-03-16T18:56:23.377Z,17.00
2023-03-16T18:58:50.636Z,17.00
2023-03-16T19:01:30.327Z,17.00
2023-03-16T19:03:58.186Z,17.00
2023-03-16T19:06:30.883Z,17.00
2023-03-16T19:09:00.937Z,17.00
2023-03-16T19:11:27.902Z,17.40
2023-03-16T19:13:54.827Z,17.00
2023-03-16T19:16:21.747Z,17.10
2023-03-16T19:18:48.429Z,17.10
2023-03-16T19:21:19.505Z,17.10
2023-03-16T19:23:51.551Z,17.10
2023-03-16T19:26:18.997Z,17.10
2023-03-16T19:28:46.157Z,17.10
2023-03-16T19:31:26.739Z,17.00
2023-03-16T19:33:53.844Z,17.00
2023-03-16T19:36:20.635Z,17.00
2023-03-16T19:38:50.371Z,17.00
2023-03-16T19:41:19.774Z,17.30
2023-03-16T19:43:46.403Z,16.90
2023-03-16T19:46:14.422Z,17.00
2023-03-16T19:48:42.354Z,16.90
2023-03-16T19:51:16.044Z,16.80
2023-03-16T19:53:42.729Z,16.80
2023-03-16T19:56:12.542Z,16.80
2023-03-16T19:58:39.537Z,16.80
2023-03-16T20:01:13.173Z,16.80
2023-03-16T20:03:39.822Z,16.80
2023-03-16T20:06:08.565Z,16.80
2023-03-16T20:08:35.214Z,16.80
2023-03-16T20:11:02.850Z,16.80
2023-03-16T20:13:31.443Z,16.80
2023-03-16T20:15:58.085Z,16.70
2023-03-16T20:18:25.040Z,16.70
2023-03-16T20:20:52.053Z,16.70
2023-03-16T20:23:21.411Z,16.70
2023-03-16T20:25:48.600Z,16.70
2023-03-16T20:28:20.340Z,16.70
2023-03-16T20:30:47.247Z,16.70
2023-03-16T20:33:16.827Z,16.70
2023-03-16T20:35:43.454Z,16.70
2023-03-16T20:38:13.772Z,16.70
2023-03-16T20:40:41.700Z,16.70
2023-03-16T20:43:27.962Z,16.70
2023-03-16T20:45:55.769Z,16.70
2023-03-16T20:48:25.259Z,16.70
2023-03-16T20:50:52.483Z,16.70
2023-03-16T20:53:19.436Z,16.70
2023-03-16T20:55:46.280Z,16.70
2023-03-16T20:58:20.783Z,16.70
2023-03-16T21:00:50.371Z,16.80
2023-03-16T21:03:19.133Z,16.80
2023-03-16T21:05:46.064Z,16.80
2023-03-16T21:08:13.340Z,16.90
2023-03-16T21:10:40.414Z,16.90
2023-03-16T21:13:14.667Z,16.90
2023-03-16T21:15:41.257Z,16.90
2023-03-16T21:18:13.298Z,16.80
2023-03-16T21:20:40.057Z,16.80
2023-03-16T21:23:11.525Z,16.80
2023-03-16T21:25:43.722Z,16.80
2023-03-16T21:28:10.976Z,16.80
2023-03-16T21:30:39.538Z,16.80
2023-03-16T21:33:16.592Z,16.80
2023-03-16T21:35:43.284Z,16.70
2023-03-16T21:38:18.216Z,16.70
2023-03-16T21:40:45.347Z,16.70
2023-03-16T21:43:12.538Z,16.70
2023-03-16T21:45:40.091Z,16.70
2023-03-16T21:48:07.340Z,16.90
2023-03-16T21:50:35.577Z,16.70
2023-03-16T21:53:02.456Z,16.70
2023-03-16T21:55:30.025Z,16.70
2023-03-16T21:57:57.492Z,16.70
2023-03-16T22:00:29.014Z,16.70
2023-03-16T22:02:57.666Z,16.70
2023-03-16T22:05:24.321Z,16.40
2023-03-16T22:07:51.373Z,16.70
2023-03-16T22:10:18.350Z,16.60
2023-03-16T22:12:44.962Z,16.60
2023-03-16T22:15:12.422Z,16.60
2023-03-16T22:17:39.140Z,16.60
2023-03-16T22:20:15.839Z,16.60
2023-03-16T22:22:42.447Z,16.60
2023-03-16T22:25:16.174Z,16.60
2023-03-16T22:27:42.817Z,16.60
2023-03-16T22:30:17.498Z,16.60
2023-03-16T22:32:48.991Z,16.50
2023-03-16T22:35:23.384Z,16.60
2023-03-16T22:37:50.085Z,16.50
2023-03-16T22:40:17.439Z,16.50
2023-03-16T22:42:44.381Z,16.60
2023-03-16T22:45:21.377Z,16.50
2023-03-16T22:47:47.955Z,16.50
2023-03-16T22:50:16.513Z,16.60
2023-03-16T22:52:44.123Z,16.60
2023-03-16T22:55:16.192Z,16.70
2023-03-16T22:57:42.875Z,16.70
2023-03-16T23:00:11.378Z,16.70
2023-03-16T23:02:38.648Z,16.70
2023-03-16T23:05:25.529Z,16.70
2023-03-16T23:07:52.455Z,16.70
2023-03-16T23:10:20.028Z,16.70
2023-03-16T23:12:46.673Z,16.70
2023-03-16T23:15:17.984Z,16.70
2023-03-16T23:17:45.146Z,16.60
2023-03-16T23:20:17.210Z,16.60
2023-03-16T23:22:44.509Z,16.60
2023-03-16T23:25:11.090Z,16.70
2023-03-16T23:27:37.874Z,16.60
2023-03-16T23:30:14.175Z,16.60
2023-03-16T23:32:41.371Z,16.60
2023-03-16T23:35:37.311Z,16.60
2023-03-16T23:38:03.933Z,16.60
2023-03-16T23:40:30.827Z,16.60
2023-03-16T23:42:59.864Z,16.60
2023-03-16T23:45:31.760Z,16.60
2023-03-16T23:47:59.631Z,16.60
2023-03-16T23:50:28.043Z,16.60
2023-03-16T23:52:55.011Z,16.60
2023-03-16T23:55:22.043Z,16.60
2023-03-16T23:57:48.644Z,16.60
